Aviation Digital Data Service (ADDS)

Output produced by METARs form (0839 UTC 20 April 2018)
found at http://aviationweather.gov/adds/metars/
 
KDTW 200528Z 2006/2112 VRB04KT P6SM SKC 
     FM201400 32008KT P6SM SCT200 
     FM210000 VRB03KT P6SM SKC